sensor_id;sensor_type;location;lat;lon;timestamp;temperature;humidity
55091;DHT22;40985;53.180;5.800;2023-05-20T00:00:50;10.60;99.90
55091;DHT22;40985;53.180;5.800;2023-05-20T00:03:17;10.60;99.90
55091;DHT22;40985;53.180;5.800;2023-05-20T00:05:45;10.60;99.90
55091;DHT22;40985;53.180;5.800;2023-05-20T00:08:10;10.50;99.90
55091;DHT22;40985;53.180;5.800;2023-05-20T00:10:37;10.50;99.90
55091;DHT22;40985;53.180;5.800;2023-05-20T00:13:03;10.50;99.90
55091;DHT22;40985;53.180;5.800;2023-05-20T00:15:29;10.50;99.90
55091;DHT22;40985;53.180;5.800;2023-05-20T00:17:55;10.50;99.90
55091;DHT22;40985;53.180;5.800;2023-05-20T00:20:21;10.50;99.90
55091;DHT22;40985;53.180;5.800;2023-05-20T00:22:46;10.50;99.90
55091;DHT22;40985;53.180;5.800;2023-05-20T00:25:12;10.50;99.90
55091;DHT22;40985;53.180;5.800;2023-05-20T00:27:41;10.50;99.90
55091;DHT22;40985;53.180;5.800;2023-05-20T00:30:07;10.50;99.90
55091;DHT22;40985;53.180;5.800;2023-05-20T00:32:33;10.50;99.90
55091;DHT22;40985;53.180;5.800;2023-05-20T00:35:00;10.40;99.90
55091;DHT22;40985;53.180;5.800;2023-05-20T00:37:26;10.40;99.90
55091;DHT22;40985;53.180;5.800;2023-05-20T00:39:52;10.40;99.90
55091;DHT22;40985;53.180;5.800;2023-05-20T00:42:21;10.40;99.90
55091;DHT22;40985;53.180;5.800;2023-05-20T00:44:47;10.40;99.90
55091;DHT22;40985;53.180;5.800;2023-05-20T00:47:14;10.40;99.90
55091;DHT22;40985;53.180;5.800;2023-05-20T00:49:41;10.40;99.90
55091;DHT22;40985;53.180;5.800;2023-05-20T00:52:07;10.40;99.90
55091;DHT22;40985;53.180;5.800;2023-05-20T00:54:32;10.40;99.90
55091;DHT22;40985;53.180;5.800;2023-05-20T00:56:58;10.30;99.90
55091;DHT22;40985;53.180;5.800;2023-05-20T00:59:25;10.30;99.90
55091;DHT22;40985;53.180;5.800;2023-05-20T01:01:51;10.30;99.90
55091;DHT22;40985;53.180;5.800;2023-05-20T01:04:17;10.20;99.90
55091;DHT22;40985;53.180;5.800;2023-05-20T01:06:44;10.20;99.90
55091;DHT22;40985;53.180;5.800;2023-05-20T01:09:11;10.30;99.90
55091;DHT22;40985;53.180;5.800;2023-05-20T01:11:51;10.20;99.90
55091;DHT22;40985;53.180;5.800;2023-05-20T01:14:22;10.20;99.90
55091;DHT22;40985;53.180;5.800;2023-05-20T01:16:49;10.10;99.90
55091;DHT22;40985;53.180;5.800;2023-05-20T01:19:43;10.10;99.90
55091;DHT22;40985;53.180;5.800;2023-05-20T01:22:10;10.10;99.90
55091;DHT22;40985;53.180;5.800;2023-05-20T01:24:44;10.10;99.90
55091;DHT22;40985;53.180;5.800;2023-05-20T01:27:13;10.10;99.90
55091;DHT22;40985;53.180;5.800;2023-05-20T01:29:42;10.10;99.90
55091;DHT22;40985;53.180;5.800;2023-05-20T01:32:33;10.10;99.90
55091;DHT22;40985;53.180;5.800;2023-05-20T01:35:02;10.10;99.90
55091;DHT22;40985;53.180;5.800;2023-05-20T01:37:30;10.10;99.90
55091;DHT22;40985;53.180;5.800;2023-05-20T01:39:56;10.00;99.90
55091;DHT22;40985;53.180;5.800;2023-05-20T01:42:25;10.00;99.90
55091;DHT22;40985;53.180;5.800;2023-05-20T01:44:52;10.10;99.90
55091;DHT22;40985;53.180;5.800;2023-05-20T01:47:18;10.00;99.90
55091;DHT22;40985;53.180;5.800;2023-05-20T01:49:43;10.00;99.90
55091;DHT22;40985;53.180;5.800;2023-05-20T01:52:11;10.00;99.90
55091;DHT22;40985;53.180;5.800;2023-05-20T01:54:36;10.10;99.90
55091;DHT22;40985;53.180;5.800;2023-05-20T01:57:02;10.00;99.90
55091;DHT22;40985;53.180;5.800;2023-05-20T01:59:28;10.00;99.90
55091;DHT22;40985;53.180;5.800;2023-05-20T02:01:53;10.10;99.90
55091;DHT22;40985;53.180;5.800;2023-05-20T02:04:19;10.00;99.90
55091;DHT22;40985;53.180;5.800;2023-05-20T02:06:47;10.00;99.90
55091;DHT22;40985;53.180;5.800;2023-05-20T02:09:13;10.00;99.90
55091;DHT22;40985;53.180;5.800;2023-05-20T02:11:38;10.00;99.90
55091;DHT22;40985;53.180;5.800;2023-05-20T02:14:04;10.00;99.90
55091;DHT22;40985;53.180;5.800;2023-05-20T02:16:30;10.00;99.90
55091;DHT22;40985;53.180;5.800;2023-05-20T02:18:55;10.00;99.90
55091;DHT22;40985;53.180;5.800;2023-05-20T02:21:23;10.00;99.90
55091;DHT22;40985;53.180;5.800;2023-05-20T02:23:50;10.00;99.90
55091;DHT22;40985;53.180;5.800;2023-05-20T02:26:16;10.00;99.90
55091;DHT22;40985;53.180;5.800;2023-05-20T02:28:41;10.00;99.90
55091;DHT22;40985;53.180;5.800;2023-05-20T02:31:14;10.00;99.90
55091;DHT22;40985;53.180;5.800;2023-05-20T02:33:40;10.00;99.90
55091;DHT22;40985;53.180;5.800;2023-05-20T02:36:06;9.90;99.90
55091;DHT22;40985;53.180;5.800;2023-05-20T02:38:32;9.90;99.90
55091;DHT22;40985;53.180;5.800;2023-05-20T02:40:58;10.00;99.90
55091;DHT22;40985;53.180;5.800;2023-05-20T02:43:24;9.90;99.90
55091;DHT22;40985;53.180;5.800;2023-05-20T02:45:50;9.90;99.90
55091;DHT22;40985;53.180;5.800;2023-05-20T02:48:16;9.90;99.90
55091;DHT22;40985;53.180;5.800;2023-05-20T02:50:42;9.90;99.90
55091;DHT22;40985;53.180;5.800;2023-05-20T02:53:08;9.90;99.90
55091;DHT22;40985;53.180;5.800;2023-05-20T02:55:34;9.90;99.90
55091;DHT22;40985;53.180;5.800;2023-05-20T02:58:00;9.90;99.90
55091;DHT22;40985;53.180;5.800;2023-05-20T03:00:26;9.90;99.90
55091;DHT22;40985;53.180;5.800;2023-05-20T03:02:55;9.90;99.90
55091;DHT22;40985;53.180;5.800;2023-05-20T03:05:20;9.80;99.90
55091;DHT22;40985;53.180;5.800;2023-05-20T03:07:47;9.80;99.90
55091;DHT22;40985;53.180;5.800;2023-05-20T03:10:13;9.80;99.90
55091;DHT22;40985;53.180;5.800;2023-05-20T03:12:39;9.80;99.90
55091;DHT22;40985;53.180;5.800;2023-05-20T03:15:05;9.80;99.90
55091;DHT22;40985;53.180;5.800;2023-05-20T03:17:31;9.80;99.90
55091;DHT22;40985;53.180;5.800;2023-05-20T03:19:57;9.70;99.90
55091;DHT22;40985;53.180;5.800;2023-05-20T03:22:22;9.80;99.90
55091;DHT22;40985;53.180;5.800;2023-05-20T03:24:48;9.70;99.90
55091;DHT22;40985;53.180;5.800;2023-05-20T03:27:14;9.70;99.90
55091;DHT22;40985;53.180;5.800;2023-05-20T03:29:39;9.70;99.90
55091;DHT22;40985;53.180;5.800;2023-05-20T03:32:05;9.70;99.90
55091;DHT22;40985;53.180;5.800;2023-05-20T03:34:31;9.70;99.90
55091;DHT22;40985;53.180;5.800;2023-05-20T03:36:57;9.70;99.90
55091;DHT22;40985;53.180;5.800;2023-05-20T03:39:24;9.70;99.90
55091;DHT22;40985;53.180;5.800;2023-05-20T03:41:50;9.70;99.90
55091;DHT22;40985;53.180;5.800;2023-05-20T03:44:16;9.70;99.90
55091;DHT22;40985;53.180;5.800;2023-05-20T03:46:41;9.70;99.90
55091;DHT22;40985;53.180;5.800;2023-05-20T03:49:07;9.70;99.90
55091;DHT22;40985;53.180;5.800;2023-05-20T03:51:33;9.70;99.90
55091;DHT22;40985;53.180;5.800;2023-05-20T03:53:58;9.70;99.90
55091;DHT22;40985;53.180;5.800;2023-05-20T03:56:24;9.70;99.90
55091;DHT22;40985;53.180;5.800;2023-05-20T03:58:50;9.70;99.90
55091;DHT22;40985;53.180;5.800;2023-05-20T04:01:16;9.70;99.90
55091;DHT22;40985;53.180;5.800;2023-05-20T04:03:42;9.70;99.90
55091;DHT22;40985;53.180;5.800;2023-05-20T04:06:08;9.80;99.90
55091;DHT22;40985;53.180;5.800;2023-05-20T04:08:34;9.80;99.90
55091;DHT22;40985;53.180;5.800;2023-05-20T04:11:01;9.80;99.90
55091;DHT22;40985;53.180;5.800;2023-05-20T04:13:27;9.80;99.90
55091;DHT22;40985;53.180;5.800;2023-05-20T04:15:53;9.80;99.90
55091;DHT22;40985;53.180;5.800;2023-05-20T04:18:19;9.80;99.90
55091;DHT22;40985;53.180;5.800;2023-05-20T04:20:45;9.80;99.90
55091;DHT22;40985;53.180;5.800;2023-05-20T04:23:11;9.80;99.90
55091;DHT22;40985;53.180;5.800;2023-05-20T04:25:36;9.80;99.90
55091;DHT22;40985;53.180;5.800;2023-05-20T04:28:03;9.90;99.90
55091;DHT22;40985;53.180;5.800;2023-05-20T04:30:29;9.90;99.90
55091;DHT22;40985;53.180;5.800;2023-05-20T04:32:58;9.90;99.90
55091;DHT22;40985;53.180;5.800;2023-05-20T04:35:27;10.00;99.90
55091;DHT22;40985;53.180;5.800;2023-05-20T04:37:54;10.00;99.90
55091;DHT22;40985;53.180;5.800;2023-05-20T04:40:20;10.00;99.90
55091;DHT22;40985;53.180;5.800;2023-05-20T04:42:46;10.00;99.90
55091;DHT22;40985;53.180;5.800;2023-05-20T04:45:12;10.10;99.90
55091;DHT22;40985;53.180;5.800;2023-05-20T04:47:38;10.10;99.90
55091;DHT22;40985;53.180;5.800;2023-05-20T04:50:08;10.10;99.90
55091;DHT22;40985;53.180;5.800;2023-05-20T04:52:37;10.10;99.90
55091;DHT22;40985;53.180;5.800;2023-05-20T04:55:12;10.10;99.90
55091;DHT22;40985;53.180;5.800;2023-05-20T04:57:38;10.10;99.90
55091;DHT22;40985;53.180;5.800;2023-05-20T05:00:09;10.10;99.90
55091;DHT22;40985;53.180;5.800;2023-05-20T05:02:35;10.20;99.90
55091;DHT22;40985;53.180;5.800;2023-05-20T05:05:01;10.20;99.90
55091;DHT22;40985;53.180;5.800;2023-05-20T05:07:27;10.30;99.90
55091;DHT22;40985;53.180;5.800;2023-05-20T05:09:53;10.20;99.90
55091;DHT22;40985;53.180;5.800;2023-05-20T05:12:19;10.20;99.90
55091;DHT22;40985;53.180;5.800;2023-05-20T05:14:44;10.20;99.90
55091;DHT22;40985;53.180;5.800;2023-05-20T05:17:10;10.20;99.90
55091;DHT22;40985;53.180;5.800;2023-05-20T05:19:36;10.20;99.90
55091;DHT22;40985;53.180;5.800;2023-05-20T05:22:01;10.30;99.90
55091;DHT22;40985;53.180;5.800;2023-05-20T05:24:27;10.30;99.90
55091;DHT22;40985;53.180;5.800;2023-05-20T05:26:53;10.30;99.90
55091;DHT22;40985;53.180;5.800;2023-05-20T05:29:19;10.30;99.90
55091;DHT22;40985;53.180;5.800;2023-05-20T05:31:45;10.20;99.90
55091;DHT22;40985;53.180;5.800;2023-05-20T05:34:11;10.30;99.90
55091;DHT22;40985;53.180;5.800;2023-05-20T05:36:38;10.30;99.90
55091;DHT22;40985;53.180;5.800;2023-05-20T05:39:04;10.30;99.90
55091;DHT22;40985;53.180;5.800;2023-05-20T05:41:30;10.40;99.90
55091;DHT22;40985;53.180;5.800;2023-05-20T05:43:57;10.60;99.90
55091;DHT22;40985;53.180;5.800;2023-05-20T05:46:23;10.70;99.90
55091;DHT22;40985;53.180;5.800;2023-05-20T05:48:49;10.80;99.90
55091;DHT22;40985;53.180;5.800;2023-05-20T05:51:16;10.90;99.90
55091;DHT22;40985;53.180;5.800;2023-05-20T05:53:41;11.10;99.90
55091;DHT22;40985;53.180;5.800;2023-05-20T05:56:08;11.20;99.90
55091;DHT22;40985;53.180;5.800;2023-05-20T05:58:34;11.30;99.90
55091;DHT22;40985;53.180;5.800;2023-05-20T06:00:59;11.30;99.90
55091;DHT22;40985;53.180;5.800;2023-05-20T06:03:25;11.30;99.90
55091;DHT22;40985;53.180;5.800;2023-05-20T06:05:51;11.30;99.90
55091;DHT22;40985;53.180;5.800;2023-05-20T06:08:16;11.30;99.90
55091;DHT22;40985;53.180;5.800;2023-05-20T06:10:47;11.30;99.90
55091;DHT22;40985;53.180;5.800;2023-05-20T06:13:13;11.40;99.90
55091;DHT22;40985;53.180;5.800;2023-05-20T06:15:39;11.50;99.90
55091;DHT22;40985;53.180;5.800;2023-05-20T06:18:05;11.50;99.90
55091;DHT22;40985;53.180;5.800;2023-05-20T06:20:31;11.60;99.90
55091;DHT22;40985;53.180;5.800;2023-05-20T06:22:57;11.80;99.90
55091;DHT22;40985;53.180;5.800;2023-05-20T06:25:23;12.00;99.90
55091;DHT22;40985;53.180;5.800;2023-05-20T06:27:49;12.10;99.90
55091;DHT22;40985;53.180;5.800;2023-05-20T06:30:15;12.20;99.90
55091;DHT22;40985;53.180;5.800;2023-05-20T06:32:40;12.10;99.90
55091;DHT22;40985;53.180;5.800;2023-05-20T06:35:06;12.00;99.90
55091;DHT22;40985;53.180;5.800;2023-05-20T06:37:32;12.00;99.90
55091;DHT22;40985;53.180;5.800;2023-05-20T06:39:58;12.00;99.90
55091;DHT22;40985;53.180;5.800;2023-05-20T06:42:24;12.10;99.90
55091;DHT22;40985;53.180;5.800;2023-05-20T06:44:49;12.20;99.90
55091;DHT22;40985;53.180;5.800;2023-05-20T06:47:16;12.20;99.90
55091;DHT22;40985;53.180;5.800;2023-05-20T06:49:43;12.30;99.90
55091;DHT22;40985;53.180;5.800;2023-05-20T06:52:08;12.40;99.90
55091;DHT22;40985;53.180;5.800;2023-05-20T06:54:35;12.50;99.90
55091;DHT22;40985;53.180;5.800;2023-05-20T06:57:06;12.60;99.90
55091;DHT22;40985;53.180;5.800;2023-05-20T06:59:31;12.70;99.90
55091;DHT22;40985;53.180;5.800;2023-05-20T07:01:57;12.90;99.90
55091;DHT22;40985;53.180;5.800;2023-05-20T07:04:23;12.90;99.90
55091;DHT22;40985;53.180;5.800;2023-05-20T07:06:48;13.00;99.90
55091;DHT22;40985;53.180;5.800;2023-05-20T07:09:14;13.00;99.90
55091;DHT22;40985;53.180;5.800;2023-05-20T07:11:39;13.10;99.90
55091;DHT22;40985;53.180;5.800;2023-05-20T07:14:05;13.20;99.90
55091;DHT22;40985;53.180;5.800;2023-05-20T07:16:33;13.20;99.90
55091;DHT22;40985;53.180;5.800;2023-05-20T07:18:59;13.30;99.90
55091;DHT22;40985;53.180;5.800;2023-05-20T07:21:25;13.30;99.90
55091;DHT22;40985;53.180;5.800;2023-05-20T07:23:51;13.40;99.90
55091;DHT22;40985;53.180;5.800;2023-05-20T07:26:17;13.50;99.90
55091;DHT22;40985;53.180;5.800;2023-05-20T07:28:43;13.50;99.90
55091;DHT22;40985;53.180;5.800;2023-05-20T07:31:10;13.50;99.90
55091;DHT22;40985;53.180;5.800;2023-05-20T07:33:35;13.60;99.90
55091;DHT22;40985;53.180;5.800;2023-05-20T07:36:01;13.70;99.90
55091;DHT22;40985;53.180;5.800;2023-05-20T07:38:27;13.70;99.90
55091;DHT22;40985;53.180;5.800;2023-05-20T07:40:52;13.80;99.90
55091;DHT22;40985;53.180;5.800;2023-05-20T07:43:18;13.80;99.90
55091;DHT22;40985;53.180;5.800;2023-05-20T07:45:44;13.90;99.90
55091;DHT22;40985;53.180;5.800;2023-05-20T07:48:10;14.00;99.90
55091;DHT22;40985;53.180;5.800;2023-05-20T07:50:37;14.10;99.90
55091;DHT22;40985;53.180;5.800;2023-05-20T07:53:04;14.10;99.90
55091;DHT22;40985;53.180;5.800;2023-05-20T07:55:32;14.20;99.90
55091;DHT22;40985;53.180;5.800;2023-05-20T07:57:58;14.30;99.90
55091;DHT22;40985;53.180;5.800;2023-05-20T08:00:24;14.30;99.90
55091;DHT22;40985;53.180;5.800;2023-05-20T08:02:50;14.30;99.90
55091;DHT22;40985;53.180;5.800;2023-05-20T08:05:15;14.40;99.90
55091;DHT22;40985;53.180;5.800;2023-05-20T08:07:41;14.40;99.90
55091;DHT22;40985;53.180;5.800;2023-05-20T08:10:07;14.50;99.90
55091;DHT22;40985;53.180;5.800;2023-05-20T08:12:33;14.60;99.90
55091;DHT22;40985;53.180;5.800;2023-05-20T08:14:59;14.60;99.90
55091;DHT22;40985;53.180;5.800;2023-05-20T08:17:24;14.70;99.90
55091;DHT22;40985;53.180;5.800;2023-05-20T08:19:50;14.70;99.90
55091;DHT22;40985;53.180;5.800;2023-05-20T08:22:16;14.80;99.90
55091;DHT22;40985;53.180;5.800;2023-05-20T08:24:41;14.90;99.90
55091;DHT22;40985;53.180;5.800;2023-05-20T08:27:07;15.00;99.90
55091;DHT22;40985;53.180;5.800;2023-05-20T08:29:33;15.00;99.90
55091;DHT22;40985;53.180;5.800;2023-05-20T08:31:58;15.10;99.90
55091;DHT22;40985;53.180;5.800;2023-05-20T08:34:24;15.20;99.90
55091;DHT22;40985;53.180;5.800;2023-05-20T08:36:50;15.30;99.90
55091;DHT22;40985;53.180;5.800;2023-05-20T08:39:16;15.20;99.90
55091;DHT22;40985;53.180;5.800;2023-05-20T08:41:41;15.20;99.90
55091;DHT22;40985;53.180;5.800;2023-05-20T08:44:08;15.30;99.90
55091;DHT22;40985;53.180;5.800;2023-05-20T08:46:36;15.30;99.90
55091;DHT22;40985;53.180;5.800;2023-05-20T08:49:02;15.30;99.90
55091;DHT22;40985;53.180;5.800;2023-05-20T08:51:28;15.40;99.90
55091;DHT22;40985;53.180;5.800;2023-05-20T08:53:58;15.40;99.90
55091;DHT22;40985;53.180;5.800;2023-05-20T08:56:24;15.50;99.90
55091;DHT22;40985;53.180;5.800;2023-05-20T08:58:52;15.50;99.90
55091;DHT22;40985;53.180;5.800;2023-05-20T09:01:18;15.50;99.90
55091;DHT22;40985;53.180;5.800;2023-05-20T09:03:44;15.60;99.90
55091;DHT22;40985;53.180;5.800;2023-05-20T09:06:14;15.60;99.90
55091;DHT22;40985;53.180;5.800;2023-05-20T09:08:40;15.70;99.90
55091;DHT22;40985;53.180;5.800;2023-05-20T09:11:09;15.80;99.90
55091;DHT22;40985;53.180;5.800;2023-05-20T09:13:34;15.80;99.90
55091;DHT22;40985;53.180;5.800;2023-05-20T09:16:00;15.80;99.90
55091;DHT22;40985;53.180;5.800;2023-05-20T09:18:26;15.90;99.90
55091;DHT22;40985;53.180;5.800;2023-05-20T09:20:52;16.00;99.90
55091;DHT22;40985;53.180;5.800;2023-05-20T09:23:18;16.10;99.90
55091;DHT22;40985;53.180;5.800;2023-05-20T09:25:51;16.20;99.90
55091;DHT22;40985;53.180;5.800;2023-05-20T09:28:19;16.20;99.90
55091;DHT22;40985;53.180;5.800;2023-05-20T09:30:48;16.20;99.90
55091;DHT22;40985;53.180;5.800;2023-05-20T09:33:14;16.30;99.90
55091;DHT22;40985;53.180;5.800;2023-05-20T09:35:40;16.50;99.90
55091;DHT22;40985;53.180;5.800;2023-05-20T09:38:06;16.50;99.90
55091;DHT22;40985;53.180;5.800;2023-05-20T09:40:32;16.50;99.90
55091;DHT22;40985;53.180;5.800;2023-05-20T09:43:02;16.60;99.90
55091;DHT22;40985;53.180;5.800;2023-05-20T09:45:29;16.60;99.90
55091;DHT22;40985;53.180;5.800;2023-05-20T09:47:56;16.60;99.90
55091;DHT22;40985;53.180;5.800;2023-05-20T09:50:23;16.80;99.90
55091;DHT22;40985;53.180;5.800;2023-05-20T09:52:50;16.80;99.90
55091;DHT22;40985;53.180;5.800;2023-05-20T09:55:18;16.80;99.90
55091;DHT22;40985;53.180;5.800;2023-05-20T09:57:45;16.80;99.90
55091;DHT22;40985;53.180;5.800;2023-05-20T10:00:12;16.70;99.90
55091;DHT22;40985;53.180;5.800;2023-05-20T10:02:51;16.70;99.90
55091;DHT22;40985;53.180;5.800;2023-05-20T10:05:21;16.50;99.90
55091;DHT22;40985;53.180;5.800;2023-05-20T10:10:52;16.70;99.90
55091;DHT22;40985;53.180;5.800;2023-05-20T10:16:28;17.20;99.90
55091;DHT22;40985;53.180;5.800;2023-05-20T10:21:39;17.30;99.90
55091;DHT22;40985;53.180;5.800;2023-05-20T10:24:09;17.10;99.90
55091;DHT22;40985;53.180;5.800;2023-05-20T10:26:40;17.30;99.90
55091;DHT22;40985;53.180;5.800;2023-05-20T10:29:18;17.30;99.90
55091;DHT22;40985;53.180;5.800;2023-05-20T10:31:51;17.40;99.90
55091;DHT22;40985;53.180;5.800;2023-05-20T10:34:21;17.50;99.90
55091;DHT22;40985;53.180;5.800;2023-05-20T10:39:24;17.20;99.90
55091;DHT22;40985;53.180;5.800;2023-05-20T10:41:51;17.10;99.90
55091;DHT22;40985;53.180;5.800;2023-05-20T10:44:16;17.20;99.90
55091;DHT22;40985;53.180;5.800;2023-05-20T10:46:42;17.10;99.90
55091;DHT22;40985;53.180;5.800;2023-05-20T10:49:18;17.40;99.90
55091;DHT22;40985;53.180;5.800;2023-05-20T10:51:46;17.50;99.90
55091;DHT22;40985;53.180;5.800;2023-05-20T10:54:13;17.70;99.90
55091;DHT22;40985;53.180;5.800;2023-05-20T10:56:39;17.70;99.90
55091;DHT22;40985;53.180;5.800;2023-05-20T10:59:15;17.90;99.90
55091;DHT22;40985;53.180;5.800;2023-05-20T11:01:41;17.90;99.90
55091;DHT22;40985;53.180;5.800;2023-05-20T11:04:08;18.00;99.90
55091;DHT22;40985;53.180;5.800;2023-05-20T11:06:33;18.10;99.90
55091;DHT22;40985;53.180;5.800;2023-05-20T11:09:06;18.20;99.90
55091;DHT22;40985;53.180;5.800;2023-05-20T11:11:32;18.20;99.90
55091;DHT22;40985;53.180;5.800;2023-05-20T11:13:57;18.20;99.90
55091;DHT22;40985;53.180;5.800;2023-05-20T11:16:25;18.20;99.90
55091;DHT22;40985;53.180;5.800;2023-05-20T11:18:50;18.20;99.90
55091;DHT22;40985;53.180;5.800;2023-05-20T11:21:17;18.20;99.90
55091;DHT22;40985;53.180;5.800;2023-05-20T11:23:44;18.10;99.90
55091;DHT22;40985;53.180;5.800;2023-05-20T11:26:10;18.10;99.90
55091;DHT22;40985;53.180;5.800;2023-05-20T11:28:36;18.20;99.90
55091;DHT22;40985;53.180;5.800;2023-05-20T11:31:03;18.40;99.90
55091;DHT22;40985;53.180;5.800;2023-05-20T11:33:29;18.30;99.90
55091;DHT22;40985;53.180;5.800;2023-05-20T11:35:55;18.30;99.90
55091;DHT22;40985;53.180;5.800;2023-05-20T11:38:22;18.30;99.90
55091;DHT22;40985;53.180;5.800;2023-05-20T11:40:52;18.30;99.90
55091;DHT22;40985;53.180;5.800;2023-05-20T11:43:19;18.20;99.90
55091;DHT22;40985;53.180;5.800;2023-05-20T11:45:47;18.50;99.90
55091;DHT22;40985;53.180;5.800;2023-05-20T11:48:13;18.50;99.90
55091;DHT22;40985;53.180;5.800;2023-05-20T11:50:45;18.60;99.90
55091;DHT22;40985;53.180;5.800;2023-05-20T11:53:18;18.60;99.90
55091;DHT22;40985;53.180;5.800;2023-05-20T11:55:52;18.50;99.90
55091;DHT22;40985;53.180;5.800;2023-05-20T11:58:21;18.40;99.90
55091;DHT22;40985;53.180;5.800;2023-05-20T12:00:48;18.30;99.90
55091;DHT22;40985;53.180;5.800;2023-05-20T12:03:14;18.50;99.90
55091;DHT22;40985;53.180;5.800;2023-05-20T12:05:41;18.30;99.90
55091;DHT22;40985;53.180;5.800;2023-05-20T12:08:06;18.40;99.90
55091;DHT22;40985;53.180;5.800;2023-05-20T12:10:32;18.40;99.90
55091;DHT22;40985;53.180;5.800;2023-05-20T12:12:58;18.30;99.90
55091;DHT22;40985;53.180;5.800;2023-05-20T12:15:24;18.20;99.90
55091;DHT22;40985;53.180;5.800;2023-05-20T12:17:52;18.30;99.90
55091;DHT22;40985;53.180;5.800;2023-05-20T12:20:22;18.20;99.90
55091;DHT22;40985;53.180;5.800;2023-05-20T12:22:48;18.50;99.90
55091;DHT22;40985;53.180;5.800;2023-05-20T12:25:15;18.40;99.90
55091;DHT22;40985;53.180;5.800;2023-05-20T12:27:42;18.40;99.90
55091;DHT22;40985;53.180;5.800;2023-05-20T12:30:15;18.50;99.90
55091;DHT22;40985;53.180;5.800;2023-05-20T12:32:41;18.20;99.90
55091;DHT22;40985;53.180;5.800;2023-05-20T12:35:08;18.30;99.90
55091;DHT22;40985;53.180;5.800;2023-05-20T12:37:34;18.40;99.90
55091;DHT22;40985;53.180;5.800;2023-05-20T12:40:00;18.30;99.90
55091;DHT22;40985;53.180;5.800;2023-05-20T12:42:26;18.00;99.90
55091;DHT22;40985;53.180;5.800;2023-05-20T12:44:52;18.00;99.90
55091;DHT22;40985;53.180;5.800;2023-05-20T12:47:19;17.90;99.90
55091;DHT22;40985;53.180;5.800;2023-05-20T12:49:44;18.10;99.90
55091;DHT22;40985;53.180;5.800;2023-05-20T12:52:10;18.10;99.90
55091;DHT22;40985;53.180;5.800;2023-05-20T12:54:36;17.90;99.90
55091;DHT22;40985;53.180;5.800;2023-05-20T12:57:01;18.40;99.90
55091;DHT22;40985;53.180;5.800;2023-05-20T12:59:27;18.30;99.90
55091;DHT22;40985;53.180;5.800;2023-05-20T13:01:53;18.40;99.90
55091;DHT22;40985;53.180;5.800;2023-05-20T13:04:18;18.40;99.90
55091;DHT22;40985;53.180;5.800;2023-05-20T13:06:44;18.30;99.90
55091;DHT22;40985;53.180;5.800;2023-05-20T13:09:10;18.40;99.90
55091;DHT22;40985;53.180;5.800;2023-05-20T13:11:35;18.50;99.90
55091;DHT22;40985;53.180;5.800;2023-05-20T13:14:01;18.30;99.90
55091;DHT22;40985;53.180;5.800;2023-05-20T13:16:27;18.40;99.90
55091;DHT22;40985;53.180;5.800;2023-05-20T13:18:52;18.40;99.90
55091;DHT22;40985;53.180;5.800;2023-05-20T13:21:18;18.30;99.90
55091;DHT22;40985;53.180;5.800;2023-05-20T13:23:44;18.00;99.90
55091;DHT22;40985;53.180;5.800;2023-05-20T13:26:10;18.10;99.90
55091;DHT22;40985;53.180;5.800;2023-05-20T13:28:36;18.20;99.90
55091;DHT22;40985;53.180;5.800;2023-05-20T13:31:05;18.20;99.90
55091;DHT22;40985;53.180;5.800;2023-05-20T13:33:31;18.20;99.90
55091;DHT22;40985;53.180;5.800;2023-05-20T13:35:57;18.20;99.90
55091;DHT22;40985;53.180;5.800;2023-05-20T13:38:23;18.00;99.90
55091;DHT22;40985;53.180;5.800;2023-05-20T13:40:48;18.20;99.90
55091;DHT22;40985;53.180;5.800;2023-05-20T13:43:15;18.30;99.90
55091;DHT22;40985;53.180;5.800;2023-05-20T13:45:41;18.60;99.90
55091;DHT22;40985;53.180;5.800;2023-05-20T13:48:07;18.80;99.90
55091;DHT22;40985;53.180;5.800;2023-05-20T13:50:32;18.70;99.90
55091;DHT22;40985;53.180;5.800;2023-05-20T13:52:58;18.60;99.90
55091;DHT22;40985;53.180;5.800;2023-05-20T13:55:24;18.80;99.90
55091;DHT22;40985;53.180;5.800;2023-05-20T13:57:50;18.70;99.90
55091;DHT22;40985;53.180;5.800;2023-05-20T14:00:17;18.60;99.90
55091;DHT22;40985;53.180;5.800;2023-05-20T14:02:43;18.10;99.90
55091;DHT22;40985;53.180;5.800;2023-05-20T14:05:09;18.00;99.90
55091;DHT22;40985;53.180;5.800;2023-05-20T14:07:35;17.70;99.90
55091;DHT22;40985;53.180;5.800;2023-05-20T14:10:00;18.00;99.90
55091;DHT22;40985;53.180;5.800;2023-05-20T14:12:26;18.30;99.90
55091;DHT22;40985;53.180;5.800;2023-05-20T14:14:52;18.40;99.90
55091;DHT22;40985;53.180;5.800;2023-05-20T14:17:18;18.10;99.90
55091;DHT22;40985;53.180;5.800;2023-05-20T14:19:43;18.10;99.90
55091;DHT22;40985;53.180;5.800;2023-05-20T14:22:09;18.50;99.90
55091;DHT22;40985;53.180;5.800;2023-05-20T14:24:37;18.40;99.90
55091;DHT22;40985;53.180;5.800;2023-05-20T14:27:02;18.40;99.90
55091;DHT22;40985;53.180;5.800;2023-05-20T14:29:28;18.60;99.90
55091;DHT22;40985;53.180;5.800;2023-05-20T14:31:54;18.50;99.90
55091;DHT22;40985;53.180;5.800;2023-05-20T14:34:20;18.50;99.90
55091;DHT22;40985;53.180;5.800;2023-05-20T14:36:46;18.60;99.90
55091;DHT22;40985;53.180;5.800;2023-05-20T14:39:11;18.60;99.90
55091;DHT22;40985;53.180;5.800;2023-05-20T14:41:37;18.70;99.90
55091;DHT22;40985;53.180;5.800;2023-05-20T14:44:03;18.80;99.90
55091;DHT22;40985;53.180;5.800;2023-05-20T14:46:29;18.80;99.90
55091;DHT22;40985;53.180;5.800;2023-05-20T14:48:54;18.60;99.90
55091;DHT22;40985;53.180;5.800;2023-05-20T14:51:20;18.60;99.90
55091;DHT22;40985;53.180;5.800;2023-05-20T14:53:46;18.30;99.90
55091;DHT22;40985;53.180;5.800;2023-05-20T14:56:11;18.40;99.90
55091;DHT22;40985;53.180;5.800;2023-05-20T14:58:37;18.10;99.90
55091;DHT22;40985;53.180;5.800;2023-05-20T15:01:03;17.90;99.90
55091;DHT22;40985;53.180;5.800;2023-05-20T15:03:28;17.80;99.90
55091;DHT22;40985;53.180;5.800;2023-05-20T15:05:54;17.70;99.90
55091;DHT22;40985;53.180;5.800;2023-05-20T15:08:20;17.90;99.90
55091;DHT22;40985;53.180;5.800;2023-05-20T15:10:46;17.90;99.90
55091;DHT22;40985;53.180;5.800;2023-05-20T15:13:11;18.10;99.90
55091;DHT22;40985;53.180;5.800;2023-05-20T15:15:37;18.40;99.90
55091;DHT22;40985;53.180;5.800;2023-05-20T15:18:03;18.50;99.90
55091;DHT22;40985;53.180;5.800;2023-05-20T15:20:28;18.20;99.90
55091;DHT22;40985;53.180;5.800;2023-05-20T15:22:55;18.00;99.90
55091;DHT22;40985;53.180;5.800;2023-05-20T15:25:21;18.10;99.90
55091;DHT22;40985;53.180;5.800;2023-05-20T15:27:47;18.20;99.90
55091;DHT22;40985;53.180;5.800;2023-05-20T15:30:13;17.80;99.90
55091;DHT22;40985;53.180;5.800;2023-05-20T15:32:39;17.80;99.90
55091;DHT22;40985;53.180;5.800;2023-05-20T15:35:05;17.90;99.90
55091;DHT22;40985;53.180;5.800;2023-05-20T15:37:31;18.10;99.90
55091;DHT22;40985;53.180;5.800;2023-05-20T15:39:57;18.20;99.90